Flight Track Log - Related Links

Times and Time Zones

All times are in EDT time to prevent confusion due to time zone crossing. See the EJA328 flight status page for this flight to view local times or setup timezone preferences in your user account.

Time Position Orientation Groundspeed Altitude Reporting Facility
EDT Latitude Longitude Course Direction KTS MPH feet Rate Location/Type
Fri 05:58:00 PM 35.9751 -115.3458 202° Southwest  Level FlightAware Approximate
Fri 05:59:00 PM 35.8866 -115.3776 161° South  Level FlightAware Approximate
Fri 06:00:00 PM 35.7966 -115.3390 161° South  Level FlightAware Approximate
Fri 06:01:00 PM 35.7067 -115.3005 161° South  Level FlightAware Approximate
Fri 06:02:00 PM 35.6139 -115.2833 180° South  Level FlightAware Approximate
Fri 06:03:00 PM 35.5187 -115.2847 182° South  Level FlightAware Approximate
Fri 06:04:00 PM 35.4235 -115.2888 182° South  Level FlightAware Approximate
Fri 06:05:00 PM 35.3284 -115.2928 182° South  Level FlightAware Approximate
Fri 06:06:00 PM 35.2332 -115.2969 182° South  Level FlightAware Approximate
Fri 06:07:00 PM 35.1381 -115.3009 182° South  Level FlightAware Approximate
Fri 06:08:00 PM 35.0429 -115.3050 182° South  Level FlightAware Approximate
Fri 06:09:00 PM 34.9478 -115.3090 182° South  Level FlightAware Approximate
Fri 06:10:00 PM 34.8526 -115.3130 182° South  Level FlightAware Approximate
Fri 06:11:00 PM 34.7580 -115.3205 200° South  Level FlightAware Approximate
Fri 06:12:00 PM 34.6686 -115.3603 200° South  Level FlightAware Approximate
Fri 06:13:00 PM 34.5792 -115.4000 200° South  Level FlightAware Approximate
Fri 06:14:00 PM 34.4898 -115.4398 200° South  Level FlightAware Approximate
Fri 06:15:00 PM 34.4004 -115.4796 200° South  Level FlightAware Approximate
Fri 06:16:00 PM 34.3123 -115.5217 224° Southwest  Level FlightAware Approximate
Fri 06:17:00 PM 34.2435 -115.6013 224° Southwest  Level FlightAware Approximate
Fri 06:18:00 PM 34.1746 -115.6808 224° Southwest  Level FlightAware Approximate
Fri 06:19:00 PM 34.1057 -115.7602 224° Southwest  Level FlightAware Approximate
Fri 06:20:00 PM 34.0281 -115.8267 215° Southwest  Level FlightAware Approximate
Fri 06:21:00 PM 33.9498 -115.8920 215° Southwest  Level FlightAware Approximate
Fri 06:22:00 PM 33.8714 -115.9572 215° Southwest  Level FlightAware Approximate
Fri 06:23:00 PM 33.7923 -116.0205 203° Southwest  Level FlightAware Approximate
Fri 06:24:00 PM 33.7129 -116.0820 212° Southwest  Level FlightAware Approximate
Fri 06:25:00 PM 33.6311 -116.1404 209° Southwest  Level FlightAware Approximate
Fri 06:26:00 PM 33.5807 -116.2341 243° Southwest  Level FlightAware Approximate
Fri 06:27:00 PM 33.5333 -116.3302 270° West  Level FlightAware Approximate
Fri 06:28:00 PM 33.4857 -116.4286 239° Southwest  Level FlightAware Approximate
Fri 06:29:00 PM 33.4313 -116.5209 239° Southwest  Level FlightAware Approximate
Fri 06:30:00 PM 33.3823 -116.6187 239° Southwest  Level FlightAware Approximate
Fri 06:31:00 PM 33.3279 -116.7109 239° Southwest  Level FlightAware Approximate
Fri 06:32:00 PM 33.2790 -116.8086 239° Southwest  Level FlightAware Approximate
Fri 06:33:00 PM 33.2403 -116.9123 248° West  Level FlightAware Approximate
Fri 06:34:00 PM 33.1833 -117.0017 270° West  Level FlightAware Approximate
Fri 06:35:00 PM 33.1493 -117.1043 259° West  Level FlightAware Approximate
Fri 06:36:00 PM 33.1295 -117.2155 253° West  Level FlightAware Approximate
Fri 06:37:00 PM 33.1167 -117.2667 253° West  Level FlightAware Approximate
Fri 06:38:00 PM 33.1283 -117.2801 253° West  Level Estimated
Fri 06:39:00 PM 33.1283 -117.2801 253° West  Level Estimated
Fri 06:40:00 PM 33.1283 -117.2801 253° West  Level Estimated
Fri 06:41:00 PM 33.1283 -117.2801 253° West  Level Estimated
Fri 06:42:00 PM 33.1283 -117.2801 253° West  Level Estimated
Fri 06:43:00 PM 33.1283 -117.2801 253° West  Level Estimated
Fri 06:44:00 PM 33.1283 -117.2801 253° West  Level Estimated
Fri 06:45:00 PM 33.1283 -117.2801 253° West  Level Estimated
Fri 06:46:00 PM 33.1283 -117.2801 253° West  Level Estimated
Fri 06:47:00 PM 33.1283 -117.2801 253° West  Level Estimated
Fri 06:48:00 PM 33.1283 -117.2801 253° West  Level Estimated
Fri 06:49:00 PM 33.1283 -117.2801 253° West  Level Estimated
Fri 06:50:00 PM 33.1283 -117.2801 253° West  Level Estimated
Fri 06:51:00 PM 33.1283 -117.2801 253° West  Level Estimated
Fri 06:52:00 PM 33.1283 -117.2801 253° West  Level Estimated

Login

Don't have an account? Register now (free) for customized features, flight alerts, and more!